Barcelona Knutsen — EACW — position and weather

sailwx.info

Track history (hours):
 
Tides and Currents Weather Stations Pressure Air Temp Water Temp Dewpoint Dewpoint Depression Visibility Wind Speed Wind Dir Waves Ship Positions

Barcelona Knutsen

Last reported at 2016-Jul-22 18:28 UTC. Time now 2016-Jul-25 08:13 UTC.
Position N 21°33' E 119°26'.

Length 290 m; draft 9.5 m.

Type: Tanker. MMSI: 224436000.

Date/timePositionNaut miles runAvg speedWind from/ knotsBaromVisibWave heightAir tempDewpointWater temp
2016-Jul-22 18:28N 21°33' E 119°26'3919.5
2016-Jul-22 16:27N 21°31' E 120°08'49616.6
2016-Jul-21 10:33N 29°30' E 122°33'1716.4
2016-Jul-21 09:30N 29°44' E 122°21'1212.0
2016-Jul-21 08:32N 29°52' E 122°11'6 3.8
2016-Jul-21 07:04N 29°54' E 122°05'0 0.0
2016-Jul-21 05:28N 29°54' E 122°05'0 0.0
2016-Jul-21 03:22N 29°54' E 122°05'0 0.0
2016-Jul-21 02:16N 29°54' E 122°05'0 0.0
2016-Jul-21 01:04N 29°54' E 122°05'0 0.0
2016-Jul-20 23:28N 29°54' E 122°05'0 0.0
2016-Jul-20 22:28N 29°54' E 122°05'0 0.0
2016-Jul-20 21:10N 29°54' E 122°05'0 0.0
2016-Jul-20 20:28N 29°54' E 122°05'0 0.0
2016-Jul-20 19:10N 29°54' E 122°05'0 0.0
2016-Jul-20 18:22N 29°54' E 122°05'0 0.0
2016-Jul-20 17:10N 29°54' E 122°05'0 0.0
2016-Jul-20 16:22N 29°54' E 122°05'0 0.0
2016-Jul-20 11:25N 29°54' E 122°05'0 0.0
2016-Jul-20 10:22N 29°54' E 122°05'0 0.0
2016-Jul-20 09:10N 29°54' E 122°05'0 0.0
2016-Jul-20 08:28N 29°54' E 122°05'0 0.0
2016-Jul-20 05:31N 29°54' E 122°05'0 0.0
2016-Jul-20 04:33N 29°54' E 122°05'0 0.0
2016-Jul-20 03:33N 29°54' E 122°05'4 4.2
2016-Jul-20 02:33N 29°54' E 122°10'1312.5
2016-Jul-20 01:32N 29°45' E 122°20'1010.3
2016-Jul-20 00:33N 29°42' E 122°31'3 0.2
2016-Jul-19 08:29N 29°42' E 122°34'1 0.8
2016-Jul-19 07:32N 29°42' E 122°35'3 0.8
2016-Jul-19 03:28N 29°42' E 122°38'  
Track history (hours):
 
Tides and Currents Weather Stations Pressure Air Temp Water Temp Dewpoint Dewpoint Depression Visibility Wind Speed Wind Dir Waves Ship Positions

Barcelona Knutsen

Last reported at 2016-Jul-22 18:28 UTC. Time now 2016-Jul-25 08:13 UTC.
Position N 21°33' E 119°26'.

Length 290 m; draft 9.5 m.

Type: Tanker. MMSI: 224436000.

Date/timePositionNaut miles runAvg speedWind from/ knotsBaromVisibWave heightAir tempDewpointWater temp
2016-Jul-22 18:28N 21°33' E 119°26'3919.5
2016-Jul-22 16:27N 21°31' E 120°08'49616.6
2016-Jul-21 10:33N 29°30' E 122°33'1716.4
2016-Jul-21 09:30N 29°44' E 122°21'1212.0
2016-Jul-21 08:32N 29°52' E 122°11'6 3.8
2016-Jul-21 07:04N 29°54' E 122°05'0 0.0
2016-Jul-21 05:28N 29°54' E 122°05'0 0.0
2016-Jul-21 03:22N 29°54' E 122°05'0 0.0
2016-Jul-21 02:16N 29°54' E 122°05'0 0.0
2016-Jul-21 01:04N 29°54' E 122°05'0 0.0
2016-Jul-20 23:28N 29°54' E 122°05'0 0.0
2016-Jul-20 22:28N 29°54' E 122°05'0 0.0
2016-Jul-20 21:10N 29°54' E 122°05'0 0.0
2016-Jul-20 20:28N 29°54' E 122°05'0 0.0
2016-Jul-20 19:10N 29°54' E 122°05'0 0.0
2016-Jul-20 18:22N 29°54' E 122°05'0 0.0
2016-Jul-20 17:10N 29°54' E 122°05'0 0.0
2016-Jul-20 16:22N 29°54' E 122°05'0 0.0
2016-Jul-20 11:25N 29°54' E 122°05'0 0.0
2016-Jul-20 10:22N 29°54' E 122°05'0 0.0
2016-Jul-20 09:10N 29°54' E 122°05'0 0.0
2016-Jul-20 08:28N 29°54' E 122°05'0 0.0
2016-Jul-20 05:31N 29°54' E 122°05'0 0.0
2016-Jul-20 04:33N 29°54' E 122°05'0 0.0
2016-Jul-20 03:33N 29°54' E 122°05'4 4.2
2016-Jul-20 02:33N 29°54' E 122°10'1312.5
2016-Jul-20 01:32N 29°45' E 122°20'1010.3
2016-Jul-20 00:33N 29°42' E 122°31'3 0.2
2016-Jul-19 08:29N 29°42' E 122°34'1 0.8
2016-Jul-19 07:32N 29°42' E 122°35'3 0.8
2016-Jul-19 03:28N 29°42' E 122°38'  

Dump ship's entire track history